Aérodrome :
LOGIN :

S'inscrire | Disclaimer

   EN    FR    IT 

 










Légende :    VFR   VFR Marginal   IFR   IFR Intensif   IFR Très Intensif
Visi : 
Plafond : 
>= 8 km
>= 3000ft
5 à 8 km
1000 à 3000 ft
1500m à 5 km
500 à 1000 ft
800 à 1500m
200 à 500 ft
< 800m
< 200 ft
Symboles :   Orages  Brouillard  Fortes neiges  Fortes précipitations  Vent > 20 kt
SIGMETs :   Divers  Orages  Givrage  Turbulence  Onde Orograph.  Cendres Volcan.






- Altitude de l'aérodrome : 158 ft
- Code IATA : QAR


EHDL - Deelen Airbase

DERNIER METAR :
  • 301125Z AUTO 29015G28KT 230V030 9999 FEW027 BKN031 OVC038 07/02 Q1016 BLU

METARs EXPIRÉS :
  • 301055Z AUTO 28015KT 200V360 9999 FEW025 SCT029 BKN039 07/02 Q1016 BLU
  • 301025Z AUTO 29014KT 230V010 9999 BKN026 BKN030 OVC038 07/02 Q1016 BLU
  • 300955Z AUTO 28015KT 210V350 9999 FEW025 BKN031 OVC036 07/02 Q1016 BLU
  • 300925Z AUTO 28015KT 230V350 9999 SCT025 SCT029 BKN033 07/02 Q1016 BLU
  • 300855Z AUTO 28015KT 220V350 9999 FEW028 SCT037 07/02 Q1015 BLU

Prévision TAF périmée.



MET'MAP, la Météo Aéronautique d'un coup d'oeil ! - Copyright ORBIFLY Décembre 2007 - Disclaimer

ORBIFLY MET'MAP TEAM :

Programmation & Développement : Alexandra Zaïnal
Sur une idée originale de : Baudouin d'Aumeries
Soutien technique & logistique : Manuel Goepfert
Assistance : Marc-Olivier Méhu




SOURCES & CREDITS :

   NOAA